Clear Lake, Minnesota
Current Conditions -  °F | °C
As of 2:53 PM on Wednesday 26 Nov 2014 (Local Time) from KSTC Reporting Station
Clear Clear  
Wind Chill: 12°   Ceiling: Unl
Heat Index: 24°   Visibility: 10mi
Dew Point: 12°   Wind: 13mph
Humidity: 60%   Direction: 340°NNW
Pressure: 30.24"   Gusts: NA
Location:  45.44°N, 94°W
Report Text: KSTC 262053Z 34011KT 10SM CLR M04/M11 A3024 RMK AO2 SLP266 T10441111 53012
Loading
Personal Weather Stations






























Interactive Weather Map New forecast layout! Learn more

10-Day Weather Forecast

Advertisements
Track Severe Weather on mobile